Time;durP1;ratioP1;P1;durP2;ratioP2;P2;SDS_P1;SDS_P2;PMS_P1;PMS_P2;Temp;Humidity;BMP_temperature;BMP_pressure;BME280_temperature;BME280_humidity;BME280_pressure;Samples;Min_cycle;Max_cycle;Signal;HPM_P1;HPM_P2
2024/01/30 00:01:56;;;;;;;28.42;10.25;;;12.00;99.90;;;;;;6298381;28;20049;-86
2024/01/30 00:04:58;;;;;;;25.77;9.63;;;12.10;99.90;;;;;;6297897;28;20185;-90
2024/01/30 00:08:00;;;;;;;26.60;9.63;;;12.10;99.90;;;;;;6298887;28;20045;-88
2024/01/30 00:11:02;;;;;;;24.17;9.30;;;12.20;99.90;;;;;;6297525;28;20089;-88
2024/01/30 00:14:03;;;;;;;24.25;8.95;;;12.20;99.90;;;;;;6293272;28;20531;-89
2024/01/30 00:17:05;;;;;;;23.75;9.57;;;12.20;99.90;;;;;;6298759;28;20053;-86
2024/01/30 00:20:08;;;;;;;24.70;9.13;;;12.20;99.90;;;;;;6297685;28;20484;-92
2024/01/30 00:23:10;;;;;;;20.70;9.02;;;12.20;99.90;;;;;;6297434;28;20053;-86
2024/01/30 00:26:12;;;;;;;24.95;8.68;;;12.20;99.90;;;;;;6285595;28;20052;-85
2024/01/30 00:29:19;;;;;;;19.83;7.82;;;12.30;99.90;;;;;;6290972;28;20427;-88
2024/01/30 00:32:22;;;;;;;21.77;7.88;;;12.30;99.90;;;;;;6297791;28;20198;-86
2024/01/30 00:35:24;;;;;;;21.58;8.00;;;12.30;99.90;;;;;;6300401;28;20411;-88
2024/01/30 00:38:26;;;;;;;19.58;7.57;;;12.30;99.90;;;;;;6294886;28;20055;-89
2024/01/30 00:41:27;;;;;;;23.48;7.22;;;12.30;99.90;;;;;;6295975;28;20139;-87
2024/01/30 00:44:29;;;;;;;21.88;7.10;;;12.40;99.90;;;;;;6292257;28;20064;-85
2024/01/30 00:47:32;;;;;;;15.30;6.57;;;12.40;99.90;;;;;;6298088;28;20104;-86
2024/01/30 00:50:35;;;;;;;26.35;7.22;;;12.40;99.90;;;;;;6299701;28;20067;-86
2024/01/30 00:53:36;;;;;;;21.58;6.63;;;12.40;99.90;;;;;;6299331;28;20056;-89
2024/01/30 00:56:38;;;;;;;16.13;6.20;;;12.40;99.90;;;;;;6299196;28;20059;-90
2024/01/30 00:59:40;;;;;;;17.05;5.45;;;12.40;99.90;;;;;;6296460;28;20059;-87
2024/01/30 01:02:42;;;;;;;17.38;4.93;;;12.40;99.90;;;;;;6300073;28;20052;-90
2024/01/30 01:05:44;;;;;;;13.98;4.53;;;12.40;99.90;;;;;;6290633;28;20056;-85
2024/01/30 01:08:45;;;;;;;15.48;4.93;;;12.30;99.90;;;;;;6299192;28;20056;-90
2024/01/30 01:11:47;;;;;;;21.13;4.70;;;12.30;99.90;;;;;;6299106;28;20060;-89
2024/01/30 01:14:49;;;;;;;11.77;4.00;;;12.30;99.90;;;;;;6290779;28;20135;-89
2024/01/30 01:17:51;;;;;;;10.43;3.20;;;;;;;;;;6303897;28;20515;-85
2024/01/30 01:20:53;;;;;;;9.82;3.75;;;12.20;99.90;;;;;;6297830;28;20075;-88
2024/01/30 01:23:55;;;;;;;11.27;3.42;;;12.30;99.90;;;;;;6299749;28;20064;-89
2024/01/30 01:26:58;;;;;;;13.05;3.35;;;12.10;99.90;;;;;;6279305;28;20472;-85
2024/01/30 01:29:59;;;;;;;10.93;3.03;;;12.10;99.90;;;;;;6299758;28;20372;-88
2024/01/30 01:33:02;;;;;;;9.43;2.58;;;12.00;99.90;;;;;;6303293;28;20060;-93
2024/01/30 01:36:04;;;;;;;9.15;2.10;;;12.00;99.90;;;;;;6299670;28;20395;-86
2024/01/30 01:39:06;;;;;;;8.38;2.25;;;11.90;99.90;;;;;;6300903;28;20095;-90
2024/01/30 01:42:07;;;;;;;7.75;1.77;;;11.90;99.90;;;;;;6301345;28;20060;-92
2024/01/30 01:45:09;;;;;;;11.38;2.38;;;11.90;99.90;;;;;;6299525;28;20334;-87
2024/01/30 01:48:11;;;;;;;8.52;1.83;;;11.90;99.90;;;;;;6301366;28;20045;-90
2024/01/30 01:51:13;;;;;;;7.07;1.92;;;11.80;99.90;;;;;;6303260;28;20053;-88
2024/01/30 01:54:15;;;;;;;15.80;2.58;;;11.70;99.90;;;;;;6301192;28;20060;-88
2024/01/30 01:57:16;;;;;;;12.30;2.50;;;11.70;99.90;;;;;;6308185;28;20049;-88
2024/01/30 02:00:19;;;;;;;8.50;2.10;;;11.70;99.90;;;;;;6314351;28;20120;-91
2024/01/30 02:03:21;;;;;;;9.98;2.10;;;11.50;99.90;;;;;;6303642;28;20048;-90
2024/01/30 02:06:23;;;;;;;7.85;2.00;;;11.50;99.90;;;;;;6284115;28;20075;-89
2024/01/30 02:09:25;;;;;;;7.88;1.88;;;11.50;99.90;;;;;;6298570;28;20052;-89
2024/01/30 02:12:26;;;;;;;11.07;2.00;;;11.40;99.90;;;;;;6297551;28;20059;-89
2024/01/30 02:15:29;;;;;;;10.77;1.98;;;11.30;99.90;;;;;;6292385;28;20063;-88
2024/01/30 02:18:30;;;;;;;9.60;1.92;;;11.20;99.90;;;;;;6274180;28;20075;-88
2024/01/30 02:21:32;;;;;;;6.90;1.80;;;11.20;99.90;;;;;;6297458;28;20590;-88
2024/01/30 02:24:34;;;;;;;10.57;2.15;;;11.10;99.90;;;;;;6297562;28;20052;-85
2024/01/30 02:27:36;;;;;;;17.33;2.60;;;11.10;99.90;;;;;;6297218;28;20052;-88
2024/01/30 02:30:37;;;;;;;12.40;2.30;;;11.00;99.90;;;;;;6276122;28;20061;-88
2024/01/30 02:33:39;;;;;;;8.85;1.80;;;10.90;99.90;;;;;;6275073;28;20055;-88
2024/01/30 02:36:41;;;;;;;13.38;1.73;;;10.80;99.90;;;;;;6296183;28;20526;-87
2024/01/30 02:39:42;;;;;;;11.93;1.85;;;10.80;99.90;;;;;;6278140;28;20048;-88
2024/01/30 02:42:44;;;;;;;11.82;2.47;;;10.80;99.90;;;;;;6282017;28;20089;-88
2024/01/30 02:45:46;;;;;;;9.38;1.50;;;10.70;99.90;;;;;;6290853;28;20052;-90
2024/01/30 02:48:47;;;;;;;8.40;1.50;;;10.80;99.90;;;;;;6297279;28;20044;-88
2024/01/30 02:51:49;;;;;;;6.28;1.40;;;10.70;99.90;;;;;;6297376;28;20060;-90
2024/01/30 02:54:51;;;;;;;6.93;1.50;;;10.70;99.90;;;;;;6279053;28;20476;-89
2024/01/30 02:57:53;;;;;;;8.43;1.40;;;10.70;99.90;;;;;;6295432;28;20341;-90
2024/01/30 03:00:54;;;;;;;6.85;1.40;;;10.60;99.90;;;;;;6296564;28;20067;-87
2024/01/30 03:03:56;;;;;;;7.03;1.33;;;10.60;99.90;;;;;;6272221;28;20543;-87
2024/01/30 03:06:58;;;;;;;5.85;1.30;;;10.60;99.90;;;;;;6277068;28;20503;-90
2024/01/30 03:09:59;;;;;;;5.55;1.30;;;10.50;99.90;;;;;;6295097;28;20063;-87
2024/01/30 03:13:01;;;;;;;6.85;1.30;;;10.60;99.90;;;;;;6293707;28;20443;-89
2024/01/30 03:16:03;;;;;;;12.30;1.73;;;10.60;99.90;;;;;;6279274;28;20162;-90
2024/01/30 03:19:05;;;;;;;9.38;1.30;;;10.50;99.90;;;;;;6274032;28;20454;-91
2024/01/30 03:22:07;;;;;;;5.35;1.27;;;10.50;99.90;;;;;;6300316;28;20416;-91
2024/01/30 03:25:08;;;;;;;6.85;1.42;;;10.70;99.90;;;;;;6298168;28;20496;-90
2024/01/30 03:28:10;;;;;;;7.90;0.93;;;10.50;99.90;;;;;;6276458;28;20174;-80
2024/01/30 03:31:12;;;;;;;5.72;1.02;;;10.40;99.90;;;;;;6279224;28;20048;-92
2024/01/30 03:34:13;;;;;;;3.80;0.77;;;10.50;99.90;;;;;;6296674;28;20090;-90
2024/01/30 03:37:15;;;;;;;6.05;1.00;;;10.40;99.90;;;;;;6296923;28;20063;-88
2024/01/30 03:40:17;;;;;;;5.07;1.17;;;10.40;99.90;;;;;;6296214;28;20181;-89
2024/01/30 03:43:19;;;;;;;5.43;0.95;;;10.40;99.90;;;;;;6291684;28;20525;-88
2024/01/30 03:46:21;;;;;;;5.70;1.23;;;10.30;99.90;;;;;;6293472;28;20518;-87
2024/01/30 03:49:22;;;;;;;4.47;1.20;;;10.30;99.90;;;;;;6294449;28;20052;-85
2024/01/30 03:52:24;;;;;;;5.97;1.23;;;10.30;99.90;;;;;;6295223;28;20056;-88
2024/01/30 03:55:26;;;;;;;7.47;1.45;;;10.30;99.90;;;;;;6273546;28;20108;-87
2024/01/30 03:58:28;;;;;;;6.60;1.00;;;10.30;99.90;;;;;;6290436;28;20067;-88
2024/01/30 04:01:29;;;;;;;5.28;0.90;;;10.20;99.90;;;;;;6295406;28;20087;-89
2024/01/30 04:04:31;;;;;;;5.65;0.98;;;10.20;99.90;;;;;;6294766;28;20429;-89
2024/01/30 04:07:34;;;;;;;3.63;0.73;;;10.10;99.90;;;;;;6273187;28;20052;-90
2024/01/30 04:10:35;;;;;;;4.32;0.70;;;10.00;99.90;;;;;;6293997;28;20060;-85
2024/01/30 04:13:37;;;;;;;4.15;0.95;;;10.00;99.90;;;;;;6288552;28;20055;-86
2024/01/30 04:16:39;;;;;;;5.32;0.90;;;9.90;99.90;;;;;;6274049;28;20579;-87
2024/01/30 04:19:40;;;;;;;4.60;0.98;;;9.90;99.90;;;;;;6292659;28;20051;-91
2024/01/30 04:22:42;;;;;;;4.35;0.82;;;9.80;99.90;;;;;;6270943;28;20068;-90
2024/01/30 04:25:44;;;;;;;4.00;0.70;;;9.80;99.90;;;;;;6294490;28;20071;-87
2024/01/30 04:28:45;;;;;;;5.10;0.90;;;9.80;99.90;;;;;;6292272;28;20495;-89
2024/01/30 04:31:47;;;;;;;3.75;0.98;;;9.80;99.90;;;;;;6271072;28;20059;-89
2024/01/30 04:34:49;;;;;;;2.92;1.10;;;9.70;99.90;;;;;;6293289;28;20060;-89
2024/01/30 04:37:51;;;;;;;3.60;0.90;;;9.70;99.90;;;;;;6293871;28;20055;-86
2024/01/30 04:40:52;;;;;;;2.95;0.90;;;9.70;99.90;;;;;;6293870;28;20052;-87
2024/01/30 04:43:54;;;;;;;5.50;1.17;;;9.70;99.90;;;;;;6299060;22;20045;-91
2024/01/30 04:46:58;;;;;;;8.43;1.25;;;9.70;99.90;;;;;;6251362;28;20049;-89
2024/01/30 04:50:01;;;;;;;4.65;1.55;;;9.80;99.90;;;;;;6270865;28;20136;-90
2024/01/30 04:53:02;;;;;;;2.92;0.90;;;9.70;99.90;;;;;;6246865;28;20062;-89
2024/01/30 04:56:04;;;;;;;7.30;1.52;;;9.70;99.90;;;;;;6270684;28;20049;-89
2024/01/30 04:59:08;;;;;;;2.88;1.10;;;9.70;99.90;;;;;;6257656;28;20257;-92
2024/01/30 05:02:10;;;;;;;3.55;1.10;;;9.70;99.90;;;;;;6246303;28;20060;-88
2024/01/30 05:05:11;;;;;;;3.72;1.10;;;9.70;99.90;;;;;;6250034;28;20053;-91
2024/01/30 05:08:13;;;;;;;5.35;1.30;;;9.80;99.90;;;;;;6271437;28;20096;-91
2024/01/30 05:11:15;;;;;;;3.75;1.20;;;9.80;99.90;;;;;;6245955;28;20417;-91
2024/01/30 05:14:17;;;;;;;5.40;1.38;;;9.80;99.90;;;;;;6267225;28;20045;-91
2024/01/30 05:17:19;;;;;;;5.28;1.27;;;9.80;99.90;;;;;;6254825;28;20515;-91
2024/01/30 05:20:21;;;;;;;4.57;1.30;;;9.80;99.90;;;;;;6256780;28;20052;-91
2024/01/30 05:23:22;;;;;;;3.85;1.17;;;9.80;99.90;;;;;;6273352;28;20856;-92
2024/01/30 05:26:24;;;;;;;5.65;1.30;;;9.80;99.90;;;;;;6268441;28;20057;-91
2024/01/30 05:29:26;;;;;;;5.47;1.38;;;9.70;99.90;;;;;;6267874;28;20049;-91
2024/01/30 05:32:29;;;;;;;3.67;1.10;;;9.70;99.90;;;;;;6256427;28;20053;-91
2024/01/30 05:35:31;;;;;;;5.55;1.30;;;9.70;99.90;;;;;;6280393;28;20246;-91
2024/01/30 05:38:32;;;;;;;3.92;1.40;;;9.70;99.90;;;;;;6261771;28;20075;-89
2024/01/30 05:41:34;;;;;;;3.92;1.30;;;9.80;99.90;;;;;;6277516;28;20060;-90
2024/01/30 05:44:36;;;;;;;5.18;1.25;;;9.70;99.90;;;;;;6254931;28;20064;-91
2024/01/30 05:47:38;;;;;;;4.65;1.30;;;9.80;99.90;;;;;;6284543;28;20412;-90
2024/01/30 05:50:41;;;;;;;4.53;1.17;;;9.80;99.90;;;;;;6276717;28;20136;-90
2024/01/30 05:53:43;;;;;;;3.45;1.02;;;9.80;99.90;;;;;;6257743;28;20080;-90
2024/01/30 05:56:45;;;;;;;3.80;1.10;;;9.70;99.90;;;;;;6286857;28;20048;-90
2024/01/30 05:59:47;;;;;;;2.50;1.00;;;9.70;99.90;;;;;;6265508;28;20060;-88
2024/01/30 06:02:49;;;;;;;3.03;1.00;;;9.70;99.90;;;;;;6291846;28;20053;-92
2024/01/30 06:05:51;;;;;;;5.45;0.98;;;9.60;99.90;;;;;;6278095;28;20071;-91
2024/01/30 06:08:55;;;;;;;2.97;0.90;;;9.70;99.90;;;;;;6250907;28;20056;-92
2024/01/30 06:11:56;;;;;;;2.63;1.00;;;9.50;99.90;;;;;;6274296;28;20068;-90
2024/01/30 06:14:58;;;;;;;3.60;0.90;;;9.40;99.90;;;;;;6252365;28;20046;-92
2024/01/30 06:18:00;;;;;;;4.65;1.30;;;9.30;99.90;;;;;;6277164;28;20044;-91
2024/01/30 06:21:01;;;;;;;3.05;1.30;;;9.20;99.90;;;;;;6275371;28;20055;-93
2024/01/30 06:24:03;;;;;;;3.17;1.20;;;9.10;99.90;;;;;;6254210;28;20055;-91
2024/01/30 06:27:05;;;;;;;4.10;1.30;;;9.00;99.90;;;;;;6278646;28;20052;-90
2024/01/30 06:30:07;;;;;;;3.08;1.20;;;8.90;99.90;;;;;;6279277;28;20049;-90
2024/01/30 06:33:08;;;;;;;4.32;1.70;;;8.80;99.90;;;;;;6254441;28;20481;-91
2024/01/30 06:36:11;;;;;;;7.47;1.80;;;8.80;99.90;;;;;;6280500;28;20447;-92
2024/01/30 06:39:13;;;;;;;5.80;2.08;;;8.70;99.90;;;;;;6270533;28;20056;-92
2024/01/30 06:42:15;;;;;;;5.15;1.95;;;8.70;99.90;;;;;;6281040;28;20041;-91
2024/01/30 06:45:17;;;;;;;4.15;2.10;;;8.70;99.90;;;;;;6260022;28;20148;-91
2024/01/30 06:48:19;;;;;;;6.45;2.20;;;8.70;99.90;;;;;;6278581;28;20480;-91
2024/01/30 06:51:21;;;;;;;5.35;2.40;;;8.60;99.90;;;;;;6279629;28;20804;-91
2024/01/30 06:54:22;;;;;;;6.80;2.55;;;8.50;99.90;;;;;;6268597;28;20037;-91
2024/01/30 06:57:24;;;;;;;6.88;2.38;;;8.50;99.90;;;;;;6269756;28;20116;-87
2024/01/30 07:00:26;;;;;;;6.57;2.67;;;8.60;99.90;;;;;;6261797;28;20049;-85
2024/01/30 07:03:28;;;;;;;7.00;2.70;;;8.50;99.90;;;;;;6273818;28;20060;-90
2024/01/30 07:06:30;;;;;;;6.65;2.65;;;8.60;99.90;;;;;;6272206;28;20052;-89
2024/01/30 07:09:31;;;;;;;7.18;2.65;;;8.60;99.90;;;;;;6250404;28;20080;-87
2024/01/30 07:12:33;;;;;;;5.88;2.60;;;8.60;99.90;;;;;;6273754;28;20075;-89
2024/01/30 07:15:36;;;;;;;6.40;2.75;;;8.60;99.90;;;;;;6250498;28;20519;-90
2024/01/30 07:18:38;;;;;;;6.68;2.78;;;8.60;99.90;;;;;;6253607;28;20057;-91
2024/01/30 07:21:40;;;;;;;6.88;2.80;;;8.60;99.90;;;;;;6279433;28;20049;-90
2024/01/30 07:24:44;;;;;;;7.22;3.05;;;8.60;99.90;;;;;;6252891;28;20136;-89
2024/01/30 07:27:46;;;;;;;8.95;2.78;;;8.60;99.90;;;;;;6270388;28;20172;-88
2024/01/30 07:30:48;;;;;;;9.60;2.95;;;8.60;99.90;;;;;;6251015;28;20152;-90
2024/01/30 07:33:50;;;;;;;6.75;2.92;;;8.70;99.90;;;;;;6253944;28;20180;-92
2024/01/30 07:36:52;;;;;;;7.55;2.72;;;8.60;99.90;;;;;;6303266;28;20056;-92
2024/01/30 07:39:56;;;;;;;6.63;3.30;;;8.60;99.90;;;;;;6263858;28;20049;-91
2024/01/30 07:42:58;;;;;;;5.65;3.05;;;8.60;99.90;;;;;;6271132;28;20144;-91
2024/01/30 07:46:01;;;;;;;5.97;2.83;;;8.60;99.90;;;;;;6291467;28;20068;-91
2024/01/30 07:49:03;;;;;;;6.57;2.50;;;8.60;99.90;;;;;;6258067;28;20049;-91
2024/01/30 07:52:06;;;;;;;6.38;2.85;;;8.60;99.90;;;;;;6282042;28;20428;-90
2024/01/30 07:55:08;;;;;;;7.40;2.78;;;8.60;99.90;;;;;;6283320;28;20072;-91
2024/01/30 07:58:10;;;;;;;8.52;2.50;;;8.80;99.90;;;;;;6271131;28;20045;-89
2024/01/30 08:01:12;;;;;;;6.85;2.83;;;8.60;99.90;;;;;;6257808;28;20053;-91
2024/01/30 08:04:14;;;;;;;5.22;2.53;;;8.60;99.90;;;;;;6281139;28;20053;-91
2024/01/30 08:07:17;;;;;;;4.68;2.20;;;8.60;99.90;;;;;;6258714;28;20116;-91
2024/01/30 08:10:19;;;;;;;4.88;2.42;;;8.70;99.90;;;;;;6276292;28;20049;-87
2024/01/30 08:13:21;;;;;;;6.00;2.22;;;8.70;99.90;;;;;;6263431;28;20050;-84
2024/01/30 08:16:23;;;;;;;5.65;2.13;;;8.70;99.90;;;;;;6270487;28;20057;-84
2024/01/30 08:19:24;;;;;;;4.85;1.98;;;8.70;99.90;;;;;;6248616;28;20125;-91
2024/01/30 08:22:26;;;;;;;4.45;2.00;;;8.70;99.90;;;;;;6272823;28;20053;-84
2024/01/30 08:25:28;;;;;;;4.35;2.10;;;8.70;99.90;;;;;;6273786;28;20065;-90
2024/01/30 08:28:30;;;;;;;4.70;1.95;;;8.70;99.90;;;;;;6272977;28;20057;-90
2024/01/30 08:31:32;;;;;;;3.55;1.40;;;8.70;99.90;;;;;;6277275;28;20049;-89
2024/01/30 08:34:34;;;;;;;3.90;1.75;;;8.70;99.90;;;;;;6260496;28;20435;-91
2024/01/30 08:37:37;;;;;;;4.07;1.60;;;8.70;99.90;;;;;;6277128;28;20186;-93
2024/01/30 08:40:41;;;;;;;4.28;1.30;;;8.70;99.90;;;;;;6279235;28;20071;-89
2024/01/30 08:43:44;;;;;;;4.00;1.30;;;8.70;99.90;;;;;;6260425;28;20067;-83
2024/01/30 08:46:46;;;;;;;2.70;1.15;;;8.80;99.90;;;;;;6252011;28;20046;-90
2024/01/30 08:49:48;;;;;;;3.35;1.02;;;8.90;99.90;;;;;;6275778;28;20049;-87
2024/01/30 08:52:49;;;;;;;4.18;1.20;;;8.90;99.90;;;;;;6278209;28;20057;-88
2024/01/30 08:55:52;;;;;;;3.22;0.90;;;8.80;99.90;;;;;;6250565;28;20052;-91
2024/01/30 08:58:53;;;;;;;2.30;0.90;;;8.90;99.90;;;;;;6282140;28;20144;-88
2024/01/30 09:01:57;;;;;;;1.92;0.80;;;8.80;99.90;;;;;;6261828;28;20053;-90
2024/01/30 09:05:12;;;;;;;2.28;0.82;;;8.80;99.90;;;;;;6267774;28;20073;-89
2024/01/30 09:08:18;;;;;;;1.80;0.80;;;8.80;99.90;;;;;;6262725;28;20049;-87
2024/01/30 09:11:20;;;;;;;4.40;1.00;;;8.80;99.90;;;;;;6274315;28;20151;-88
2024/01/30 09:14:22;;;;;;;2.22;0.80;;;8.80;99.90;;;;;;6270466;28;20055;-86
2024/01/30 09:17:24;;;;;;;3.40;0.65;;;8.80;99.90;;;;;;6256579;28;20056;-84
2024/01/30 09:20:25;;;;;;;4.15;0.80;;;8.90;99.90;;;;;;6278886;28;20045;-85
2024/01/30 09:23:27;;;;;;;2.17;0.73;;;8.90;99.90;;;;;;6289126;28;20053;-91
2024/01/30 09:26:29;;;;;;;2.58;0.70;;;9.00;99.90;;;;;;6280689;28;20060;-89
2024/01/30 09:29:31;;;;;;;2.40;0.60;;;9.00;99.90;;;;;;6266120;28;20112;-91
2024/01/30 09:32:33;;;;;;;2.40;0.80;;;9.10;99.90;;;;;;6267571;28;20084;-90
2024/01/30 09:35:35;;;;;;;3.30;0.82;;;9.20;99.90;;;;;;6262809;28;20053;-88
2024/01/30 09:38:37;;;;;;;3.38;0.90;;;9.30;99.90;;;;;;6290513;28;20053;-90
2024/01/30 09:41:39;;;;;;;4.15;1.15;;;9.40;99.90;;;;;;6284544;28;20057;-92
2024/01/30 09:44:42;;;;;;;2.92;1.17;;;9.30;99.90;;;;;;6273616;28;20077;-87
2024/01/30 09:47:45;;;;;;;4.75;1.00;;;9.30;99.90;;;;;;6278752;28;20052;-91
2024/01/30 09:50:47;;;;;;;2.13;0.70;;;9.30;99.90;;;;;;6267951;28;20479;-91
2024/01/30 09:53:49;;;;;;;2.97;0.73;;;9.40;99.90;;;;;;6282574;28;20409;-90
2024/01/30 09:56:50;;;;;;;2.67;0.70;;;9.50;99.90;;;;;;6277470;28;20052;-90
2024/01/30 09:59:54;;;;;;;2.10;0.60;;;9.50;99.90;;;;;;6257387;28;20428;-87
2024/01/30 10:02:55;;;;;;;2.30;0.70;;;9.40;99.90;;;;;;6252033;28;20065;-93
2024/01/30 10:05:57;;;;;;;3.45;1.05;;;9.30;99.90;;;;;;6279635;28;20064;-89
2024/01/30 10:08:59;;;;;;;1.75;0.80;;;9.40;99.90;;;;;;6280254;28;20535;-90
2024/01/30 10:12:01;;;;;;;2.92;0.70;;;9.50;99.90;;;;;;6254054;28;20090;-87
2024/01/30 10:15:03;;;;;;;3.70;0.90;;;9.60;99.90;;;;;;6259479;28;20135;-90
2024/01/30 10:18:06;;;;;;;2.08;0.77;;;9.60;99.90;;;;;;6269526;28;20045;-90
2024/01/30 10:21:08;;;;;;;2.40;0.80;;;9.60;99.30;;;;;;6267035;28;20535;-89
2024/01/30 10:24:12;;;;;;;3.25;0.80;;;9.70;99.90;;;;;;6286789;28;20394;-84
2024/01/30 10:27:14;;;;;;;2.83;0.88;;;9.70;99.90;;;;;;6260344;28;20060;-84
2024/01/30 10:30:17;;;;;;;3.70;1.00;;;9.80;99.10;;;;;;6248626;28;20049;-91
2024/01/30 10:33:19;;;;;;;2.17;0.80;;;9.80;97.10;;;;;;6280594;28;20096;-90
2024/01/30 10:36:20;;;;;;;2.75;0.90;;;9.90;96.40;;;;;;6279721;28;20060;-90
2024/01/30 10:39:22;;;;;;;3.05;0.90;;;9.90;97.50;;;;;;6249615;28;20436;-88
2024/01/30 10:42:24;;;;;;;1.92;0.82;;;10.00;95.80;;;;;;6272651;28;20053;-87
2024/01/30 10:45:25;;;;;;;3.33;0.90;;;10.00;95.60;;;;;;6268653;28;20060;-89
2024/01/30 10:48:27;;;;;;;3.03;0.73;;;9.90;97.20;;;;;;6250731;28;20491;-86
2024/01/30 10:51:29;;;;;;;3.70;0.63;;;9.90;96.10;;;;;;6245996;28;20077;-86
2024/01/30 10:54:31;;;;;;;2.72;0.80;;;9.80;95.60;;;;;;6257713;28;20456;-86
2024/01/30 10:57:33;;;;;;;2.40;0.80;;;9.70;95.00;;;;;;6269866;28;20057;-89
2024/01/30 11:00:34;;;;;;;2.95;0.70;;;9.60;94.30;;;;;;6268066;28;20056;-88
2024/01/30 11:03:36;;;;;;;3.40;0.75;;;9.70;95.40;;;;;;6262381;28;20485;-87
2024/01/30 11:06:38;;;;;;;1.95;0.88;;;9.60;93.70;;;;;;6269653;28;20068;-86
2024/01/30 11:09:41;;;;;;;3.13;0.68;;;9.50;93.30;;;;;;6245026;28;20168;-87
2024/01/30 11:12:46;;;;;;;1.50;0.68;;;9.50;93.10;;;;;;6266129;28;20053;-87
2024/01/30 11:15:48;;;;;;;3.08;0.70;;;9.50;91.90;;;;;;6266521;28;20095;-88
2024/01/30 11:18:54;;;;;;;2.78;0.65;;;9.50;91.20;;;;;;6254511;28;20056;-90
2024/01/30 11:21:57;;;;;;;2.78;0.70;;;9.50;90.30;;;;;;6273848;28;20056;-88
2024/01/30 11:24:59;;;;;;;3.60;0.63;;;9.50;90.90;;;;;;6261978;28;20080;-88
2024/01/30 11:28:01;;;;;;;2.95;0.90;;;9.60;90.70;;;;;;6250971;28;20112;-89
2024/01/30 11:31:02;;;;;;;2.30;0.65;;;9.50;85.60;;;;;;6277742;28;20048;-87
2024/01/30 11:34:06;;;;;;;1.80;0.52;;;9.50;87.60;;;;;;6250631;28;20135;-89
2024/01/30 11:37:09;;;;;;;1.75;0.70;;;9.40;86.80;;;;;;6279456;28;20052;-90
2024/01/30 11:40:11;;;;;;;1.30;0.57;;;9.50;85.20;;;;;;6265904;28;20166;-87
2024/01/30 11:43:13;;;;;;;1.63;0.60;;;9.40;82.70;;;;;;6254599;28;20502;-89
2024/01/30 11:46:14;;;;;;;1.60;0.55;;;9.40;76.80;;;;;;6278115;28;20057;-88
2024/01/30 11:49:17;;;;;;;1.50;0.50;;;9.40;76.80;;;;;;6251534;28;20795;-90
2024/01/30 11:52:19;;;;;;;2.22;0.70;;;9.40;72.20;;;;;;6275953;28;20057;-89
2024/01/30 11:55:21;;;;;;;2.33;0.63;;;9.40;78.50;;;;;;6252289;28;20058;-89
2024/01/30 11:58:22;;;;;;;1.67;0.60;;;9.40;75.40;;;;;;6259010;28;20053;-89
2024/01/30 12:01:24;;;;;;;1.90;0.60;;;9.30;76.60;;;;;;6284379;28;20086;-87
2024/01/30 12:04:27;;;;;;;1.77;0.60;;;9.30;82.00;;;;;;6253060;28;20064;-89
2024/01/30 12:07:29;;;;;;;7.32;0.95;;;9.20;79.40;;;;;;6300216;28;20064;-87
2024/01/30 12:10:32;;;;;;;2.88;1.10;;;9.20;82.90;;;;;;6261331;28;20049;-88
2024/01/30 12:13:34;;;;;;;1.40;0.50;;;9.20;79.10;;;;;;6261244;28;20436;-90
2024/01/30 12:16:36;;;;;;;1.92;0.60;;;9.20;78.30;;;;;;6261059;28;20053;-89
2024/01/30 12:19:38;;;;;;;1.42;0.50;;;9.20;80.00;;;;;;6263298;28;20063;-90
2024/01/30 12:22:40;;;;;;;2.22;0.70;;;9.30;79.60;;;;;;6260566;28;20123;-91
2024/01/30 12:25:42;;;;;;;2.85;0.63;;;9.30;75.80;;;;;;6280433;28;20063;-89
2024/01/30 12:28:43;;;;;;;1.67;0.70;;;9.20;79.50;;;;;;6264423;28;20056;-89
2024/01/30 12:31:46;;;;;;;2.63;0.73;;;9.30;83.70;;;;;;6253497;28;20046;-89
2024/01/30 12:34:48;;;;;;;2.10;0.70;;;9.30;80.60;;;;;;6275912;28;20099;-89
2024/01/30 12:38:03;;;;;;;1.38;0.50;;;9.20;78.70;;;;;;6253042;28;20077;-90
2024/01/30 12:41:05;;;;;;;2.00;0.70;;;9.20;76.90;;;;;;6252760;28;20057;-89
2024/01/30 12:44:07;;;;;;;2.85;0.70;;;9.10;80.80;;;;;;6266161;28;20053;-90
2024/01/30 12:47:10;;;;;;;2.08;0.85;;;9.10;81.00;;;;;;6277714;28;20482;-86
2024/01/30 12:50:12;;;;;;;1.90;0.68;;;9.10;87.40;;;;;;6283223;28;20056;-89
2024/01/30 12:53:14;;;;;;;1.55;0.50;;;9.00;84.00;;;;;;6281325;28;20063;-88
2024/01/30 12:56:15;;;;;;;1.75;0.70;;;9.00;84.90;;;;;;6277160;28;20052;-89
2024/01/30 12:59:17;;;;;;;1.70;0.60;;;9.00;88.20;;;;;;6283051;28;20064;-86
2024/01/30 13:02:19;;;;;;;2.47;0.60;;;9.00;87.50;;;;;;6274231;28;20466;-85
2024/01/30 13:05:20;;;;;;;2.63;0.80;;;9.10;88.50;;;;;;6251888;28;20049;-87
2024/01/30 13:08:22;;;;;;;2.53;0.80;;;9.10;85.80;;;;;;6259351;28;20091;-86
2024/01/30 13:11:25;;;;;;;1.60;0.70;;;9.10;85.00;;;;;;6254387;28;20428;-88
2024/01/30 13:14:27;;;;;;;2.75;0.73;;;9.20;90.80;;;;;;6281861;28;20045;-90
2024/01/30 13:17:29;;;;;;;1.92;0.63;;;9.30;87.50;;;;;;6258569;28;20049;-87
2024/01/30 13:20:31;;;;;;;2.38;0.60;;;9.40;83.90;;;;;;6247721;28;20497;-87
2024/01/30 13:23:33;;;;;;;5.50;1.13;;;9.40;82.50;;;;;;6247779;28;20060;-86
2024/01/30 13:26:34;;;;;;;3.00;0.70;;;9.40;84.50;;;;;;6288508;28;20057;-87
2024/01/30 13:29:36;;;;;;;4.07;1.05;;;9.40;86.30;;;;;;6245632;28;20064;-86
2024/01/30 13:32:43;;;;;;;2.47;0.80;;;9.50;80.30;;;;;;6275746;28;20065;-87
2024/01/30 13:35:46;;;;;;;2.20;0.82;;;9.50;81.60;;;;;;6249522;28;20053;-85
2024/01/30 13:38:47;;;;;;;3.10;1.02;;;9.60;78.30;;;;;;6272047;28;20053;-86
2024/01/30 13:41:50;;;;;;;3.08;0.73;;;9.50;76.80;;;;;;6249340;28;20138;-87
2024/01/30 13:44:51;;;;;;;2.88;0.95;;;9.50;76.20;;;;;;6262130;28;20061;-87
2024/01/30 13:47:53;;;;;;;2.75;0.90;;;9.60;75.90;;;;;;6271022;28;20072;-87
2024/01/30 13:50:55;;;;;;;2.15;0.80;;;9.50;74.10;;;;;;6246375;28;20057;-85
2024/01/30 13:53:57;;;;;;;4.50;0.80;;;9.50;72.90;;;;;;6270370;28;20495;-86
2024/01/30 13:56:59;;;;;;;2.30;0.80;;;9.40;71.20;;;;;;6247595;28;20049;-89
2024/01/30 14:00:00;;;;;;;4.40;0.82;;;9.40;71.70;;;;;;6269611;28;20053;-87
2024/01/30 14:03:03;;;;;;;3.05;0.70;;;9.40;75.80;;;;;;6294419;28;20499;-86
2024/01/30 14:06:05;;;;;;;2.72;0.70;;;9.30;72.70;;;;;;6272562;28;20158;-87
2024/01/30 14:09:07;;;;;;;1.88;0.68;;;9.40;75.00;;;;;;6249948;28;20060;-87
2024/01/30 14:12:09;;;;;;;7.63;0.82;;;9.40;68.40;;;;;;6271392;28;20535;-88
2024/01/30 14:15:12;;;;;;;3.08;0.95;;;9.40;70.70;;;;;;6250957;28;20064;-89
2024/01/30 14:18:28;;;;;;;1.58;0.60;;;9.40;67.90;;;;;;6251139;28;20057;-89
2024/01/30 14:21:29;;;;;;;2.55;0.80;;;9.40;64.80;;;;;;6275119;28;20063;-89
2024/01/30 14:24:31;;;;;;;3.80;0.73;;;9.40;56.00;;;;;;6276613;28;20072;-91
2024/01/30 14:27:33;;;;;;;1.90;0.60;;;9.60;62.30;;;;;;6254340;28;20057;-88
2024/01/30 14:30:35;;;;;;;2.97;0.80;;;9.70;59.00;;;;;;6275566;28;20056;-86
2024/01/30 14:33:37;;;;;;;2.95;0.98;;;9.70;51.50;;;;;;6265607;28;20064;-88
2024/01/30 14:36:41;;;;;;;2.33;0.90;;;9.80;56.80;;;;;;6281170;28;20442;-92
2024/01/30 14:39:43;;;;;;;1.75;0.60;;;9.80;51.00;;;;;;6252867;28;20057;-91
2024/01/30 14:42:45;;;;;;;3.72;0.80;;;9.70;57.50;;;;;;6253232;28;20052;-90
2024/01/30 14:45:49;;;;;;;2.83;0.70;;;9.70;56.70;;;;;;6263516;28;20507;-88
2024/01/30 14:48:51;;;;;;;2.92;0.70;;;9.60;51.40;;;;;;6248873;28;20057;-88
2024/01/30 14:51:55;;;;;;;3.13;0.80;;;9.60;57.20;;;;;;6271526;28;20496;-88
2024/01/30 14:54:57;;;;;;;3.83;1.00;;;9.50;64.20;;;;;;6247907;28;20351;-85
2024/01/30 14:57:59;;;;;;;3.05;0.80;;;9.50;60.30;;;;;;6252132;28;20064;-90
2024/01/30 15:01:01;;;;;;;1.80;0.70;;;9.40;58.70;;;;;;6274526;28;20369;-88
2024/01/30 15:04:03;;;;;;;11.02;1.10;;;9.40;55.20;;;;;;6271591;28;20064;-88
2024/01/30 15:07:04;;;;;;;1.95;0.80;;;9.30;63.00;;;;;;6264187;28;20132;-86
2024/01/30 15:10:07;;;;;;;3.03;0.93;;;9.40;65.80;;;;;;6250137;28;20053;-87
2024/01/30 15:13:10;;;;;;;3.80;0.90;;;9.30;70.60;;;;;;6250711;28;20052;-90
2024/01/30 15:16:12;;;;;;;2.78;0.82;;;9.30;72.70;;;;;;6279868;28;20507;-91
2024/01/30 15:19:14;;;;;;;8.00;1.63;;;9.30;74.70;;;;;;6255085;28;20053;-87
2024/01/30 15:22:16;;;;;;;6.45;1.25;;;9.30;72.80;;;;;;6255804;28;20472;-88
2024/01/30 15:25:18;;;;;;;5.00;0.77;;;9.30;74.40;;;;;;6277540;28;20055;-88
2024/01/30 15:28:21;;;;;;;4.35;0.80;;;9.20;76.60;;;;;;6270501;28;20144;-88
2024/01/30 15:31:23;;;;;;;2.78;0.88;;;9.20;79.40;;;;;;6250463;28;20449;-88
2024/01/30 15:34:25;;;;;;;3.15;0.75;;;9.20;79.10;;;;;;6246603;28;20058;-87
2024/01/30 15:37:27;;;;;;;2.22;0.70;;;9.10;78.70;;;;;;6245274;28;20054;-85
2024/01/30 15:40:29;;;;;;;3.42;0.80;;;9.10;83.30;;;;;;6289002;28;20056;-89
2024/01/30 15:43:32;;;;;;;2.15;0.88;;;9.00;86.20;;;;;;6252327;28;20056;-88
2024/01/30 15:46:34;;;;;;;2.40;0.70;;;9.00;86.40;;;;;;6270045;28;20061;-87
2024/01/30 15:49:35;;;;;;;2.30;0.73;;;8.90;87.30;;;;;;6257526;28;20053;-87
2024/01/30 15:52:37;;;;;;;3.63;0.90;;;8.90;87.30;;;;;;6245149;28;20243;-87
2024/01/30 15:55:39;;;;;;;3.95;1.10;;;9.00;90.20;;;;;;6247927;28;20049;-87